< < Back
Terminal Aerodrome Forecast


Current Version              Previous Versions:   1  2  3  4  5  6  7  8  9  

Terminal Aerodrome Forecast

695
FTUS42 KTAE 271721
TAFDHN
TAF
KDHN 271721Z 2718/2818 04005KT P6SM SCT100 OVC250
     FM280500 07007KT 4SM RA OVC025
     FM281500 09010KT P6SM RA OVC015=

Latest METAR

470
SAUS70 KWBC 281200 RRD
MTRDHN
METAR KDHN 281153Z 06008KT 10SM SCT048 OVC075 16/11 A2987 RMK AO2 SLP112
T01610106 10172 20161 53011


USA.gov is the U.S. government's official web portal to all federal, state and local government web resources and services.